createdAt,value
2019-01-18T00:00:11.058Z,-0.23
2019-01-18T00:01:10.952Z,-0.16
2019-01-18T00:02:10.871Z,-0.19
2019-01-18T00:03:10.745Z,-0.23
2019-01-18T00:04:10.642Z,-0.19
2019-01-18T00:05:10.536Z,-0.20
2019-01-18T00:06:10.433Z,-0.17
2019-01-18T00:07:10.353Z,-0.24
2019-01-18T00:08:10.223Z,-0.20
2019-01-18T00:09:10.121Z,-0.17
2019-01-18T00:10:10.020Z,-0.26
2019-01-18T00:11:09.913Z,-0.17
2019-01-18T00:12:09.831Z,-0.21
2019-01-18T00:13:09.709Z,-0.14
2019-01-18T00:14:09.606Z,-0.21
2019-01-18T00:15:09.497Z,-0.23
2019-01-18T00:16:09.394Z,-0.16
2019-01-18T00:17:09.311Z,-0.17
2019-01-18T00:18:09.187Z,-0.17
2019-01-18T00:19:09.085Z,-0.14
2019-01-18T00:20:08.982Z,-0.20
2019-01-18T00:21:08.877Z,-0.17
2019-01-18T00:22:08.793Z,-0.17
2019-01-18T00:23:08.666Z,-0.20
2019-01-18T00:24:08.566Z,-0.38
2019-01-18T00:25:08.460Z,-0.45
2019-01-18T00:26:08.356Z,-0.39
2019-01-18T00:27:08.272Z,-0.35
2019-01-18T00:28:08.151Z,-0.41
2019-01-18T00:29:08.042Z,-0.35
2019-01-18T00:30:07.945Z,-0.39
2019-01-18T00:31:07.836Z,-0.44
2019-01-18T00:32:07.752Z,-0.45
2019-01-18T00:33:07.630Z,-0.41
2019-01-18T00:34:07.525Z,-0.38
2019-01-18T00:35:07.422Z,-0.42
2019-01-18T00:36:07.316Z,-0.41
2019-01-18T00:37:07.237Z,-0.34
2019-01-18T00:38:07.110Z,-0.41
2019-01-18T00:39:07.008Z,-0.37
2019-01-18T00:40:06.902Z,-0.31
2019-01-18T00:41:06.800Z,-0.31
2019-01-18T00:42:06.713Z,-0.26
2019-01-18T00:43:06.590Z,-0.24
2019-01-18T00:44:06.483Z,-0.27
2019-01-18T00:45:06.384Z,-0.26
2019-01-18T00:46:06.277Z,-0.26
2019-01-18T00:47:06.294Z,-0.27
2019-01-18T00:48:06.071Z,-0.32
2019-01-18T00:49:05.964Z,-0.30
2019-01-18T00:50:05.861Z,-0.31
2019-01-18T00:51:05.756Z,-0.26
2019-01-18T00:52:05.670Z,-0.19
2019-01-18T00:53:05.547Z,-0.20
2019-01-18T00:54:05.445Z,-0.30
2019-01-18T00:55:05.442Z,-0.23
2019-01-18T00:56:05.236Z,-0.20
2019-01-18T00:57:05.155Z,-0.21
2019-01-18T00:58:05.029Z,-0.20
2019-01-18T00:59:04.923Z,-0.19
2019-01-18T01:00:04.817Z,-0.17
2019-01-18T01:01:04.716Z,-0.16
2019-01-18T01:02:04.726Z,-0.19
2019-01-18T01:03:04.507Z,-0.20
2019-01-18T01:04:04.404Z,-0.19
2019-01-18T01:05:04.298Z,-0.20
2019-01-18T01:06:04.199Z,-0.20
2019-01-18T01:07:04.093Z,-0.30
2019-01-18T01:08:04.015Z,-0.26
2019-01-18T01:09:03.982Z,-0.21
2019-01-18T01:10:03.782Z,-0.27
2019-01-18T01:11:03.676Z,-0.32
2019-01-18T01:12:03.576Z,-0.26
2019-01-18T01:13:03.492Z,-0.31
2019-01-18T01:14:03.363Z,-0.32
2019-01-18T01:15:03.262Z,-0.35
2019-01-18T01:16:03.260Z,-0.37
2019-01-18T01:17:03.055Z,-0.39
2019-01-18T01:18:02.974Z,-0.39
2019-01-18T01:19:02.847Z,-0.35
2019-01-18T01:20:02.758Z,-0.38
2019-01-18T01:21:02.636Z,-0.41
2019-01-18T01:22:02.532Z,-0.37
2019-01-18T01:23:02.551Z,-0.31
2019-01-18T01:24:02.326Z,-0.24
2019-01-18T01:25:02.220Z,-0.19
2019-01-18T01:26:02.118Z,-0.23
2019-01-18T01:27:02.013Z,-0.23
2019-01-18T01:28:01.931Z,-0.26
2019-01-18T01:29:01.805Z,-0.30
2019-01-18T01:30:01.803Z,-0.34
2019-01-18T01:31:01.598Z,-0.32
2019-01-18T01:32:01.493Z,-0.31
2019-01-18T01:33:01.410Z,-0.31
2019-01-18T01:34:01.288Z,-0.31
2019-01-18T01:35:01.181Z,-0.26
2019-01-18T01:36:01.077Z,-0.24
2019-01-18T01:37:01.096Z,-0.20
2019-01-18T01:38:00.888Z,-0.23
2019-01-18T01:39:00.765Z,-0.20
2019-01-18T01:40:00.659Z,-0.17
2019-01-18T01:41:00.559Z,-0.17
2019-01-18T01:42:00.457Z,-0.23
2019-01-18T01:43:00.371Z,-0.17
2019-01-18T01:44:00.351Z,-0.19
2019-01-18T01:45:00.173Z,-0.17
2019-01-18T01:46:00.039Z,-0.17
2019-01-18T01:46:59.931Z,-0.20
2019-01-18T01:47:59.850Z,-0.20
2019-01-18T01:48:59.728Z,-0.20
2019-01-18T01:49:59.619Z,-0.17
2019-01-18T01:50:59.619Z,-0.17
2019-01-18T01:51:59.416Z,-0.17
2019-01-18T01:52:59.331Z,-0.17
2019-01-18T01:53:59.207Z,-0.17
2019-01-18T01:54:59.101Z,-0.20
2019-01-18T01:55:58.996Z,-0.14
2019-01-18T01:56:58.893Z,-0.17
2019-01-18T01:57:58.812Z,-0.14
2019-01-18T01:58:58.685Z,-0.20
2019-01-18T01:59:58.584Z,-0.17
2019-01-18T02:00:58.481Z,-0.19
2019-01-18T02:01:58.374Z,-0.21
2019-01-18T02:02:58.292Z,-0.19
2019-01-18T02:03:58.168Z,-0.27
2019-01-18T02:04:58.062Z,-0.17
2019-01-18T02:05:57.959Z,-0.19
2019-01-18T02:06:57.854Z,-0.17
2019-01-18T02:07:57.770Z,-0.13
2019-01-18T02:08:57.651Z,-0.17
2019-01-18T02:09:57.545Z,-0.17
2019-01-18T02:10:57.438Z,-0.19
2019-01-18T02:11:57.331Z,-0.19
2019-01-18T02:12:57.250Z,-0.14
2019-01-18T02:13:57.127Z,-0.19
2019-01-18T02:14:57.025Z,-0.20
2019-01-18T02:15:56.919Z,-0.19
2019-01-18T02:16:56.817Z,-0.20
2019-01-18T02:17:56.733Z,-0.17
2019-01-18T02:18:56.610Z,-0.19
2019-01-18T02:19:56.506Z,-0.20
2019-01-18T02:20:56.401Z,-0.20
2019-01-18T02:21:56.296Z,-0.19
2019-01-18T02:22:56.217Z,-0.24
2019-01-18T02:23:56.089Z,-0.23
2019-01-18T02:24:55.985Z,-0.20
2019-01-18T02:25:55.879Z,-0.23
2019-01-18T02:26:55.778Z,-0.30
2019-01-18T02:27:55.697Z,-0.17
2019-01-18T02:28:55.570Z,-0.19
2019-01-18T02:29:56.775Z,-0.21
2019-01-18T02:30:55.361Z,-0.20
2019-01-18T02:31:55.259Z,-0.19
2019-01-18T02:32:55.173Z,-0.16
2019-01-18T02:33:55.050Z,-0.19
2019-01-18T02:34:54.949Z,-0.17
2019-01-18T02:35:54.846Z,-0.19
2019-01-18T02:36:54.738Z,-0.14
2019-01-18T02:37:54.656Z,-0.21
2019-01-18T02:38:54.530Z,-0.17
2019-01-18T02:39:54.425Z,-0.17
2019-01-18T02:40:54.324Z,-0.20
2019-01-18T02:41:54.218Z,-0.14
2019-01-18T02:42:54.139Z,-0.21
2019-01-18T02:43:54.013Z,-0.19
2019-01-18T02:44:53.906Z,-0.16
2019-01-18T02:45:53.802Z,-0.30
2019-01-18T02:46:53.698Z,-0.26
2019-01-18T02:47:53.618Z,-0.23
2019-01-18T02:48:53.490Z,-0.24
2019-01-18T02:49:53.388Z,-0.24
2019-01-18T02:50:53.284Z,-0.32
2019-01-18T02:51:53.189Z,-0.26
2019-01-18T02:52:53.076Z,-0.24
2019-01-18T02:53:52.993Z,-0.31
2019-01-18T02:54:52.967Z,-0.21
2019-01-18T02:55:52.762Z,-0.23
2019-01-18T02:56:52.660Z,-0.27
2019-01-18T02:57:52.558Z,-0.31
2019-01-18T02:58:52.474Z,-0.27
2019-01-18T02:59:52.370Z,-0.32
2019-01-18T03:00:52.244Z,-0.38
2019-01-18T03:01:52.241Z,-0.27
2019-01-18T03:02:52.040Z,-0.30
2019-01-18T03:03:51.953Z,-0.34
2019-01-18T03:04:51.832Z,-0.30
2019-01-18T03:05:51.725Z,-0.35
2019-01-18T03:06:51.621Z,-0.35
2019-01-18T03:07:51.524Z,-0.39
2019-01-18T03:08:51.528Z,-0.37
2019-01-18T03:09:51.313Z,-0.37
2019-01-18T03:10:51.205Z,-0.42
2019-01-18T03:11:51.103Z,-0.42
2019-01-18T03:12:50.998Z,-0.39
2019-01-18T03:13:50.919Z,-0.44
2019-01-18T03:14:50.789Z,-0.42
2019-01-18T03:15:50.787Z,-0.41
2019-01-18T03:16:50.581Z,-0.53
2019-01-18T03:17:50.482Z,-0.52
2019-01-18T03:18:50.393Z,-0.50
2019-01-18T03:19:50.268Z,-0.58
2019-01-18T03:20:50.171Z,-0.59
2019-01-18T03:21:50.061Z,-0.63
2019-01-18T03:22:50.057Z,-0.62
2019-01-18T03:23:49.875Z,-0.62
2019-01-18T03:24:49.750Z,-0.60
2019-01-18T03:25:49.646Z,-0.67
2019-01-18T03:26:49.542Z,-0.60
2019-01-18T03:27:49.438Z,-0.65
2019-01-18T03:28:49.356Z,-0.59
2019-01-18T03:29:49.333Z,-0.60
2019-01-18T03:30:49.129Z,-0.60
2019-01-18T03:31:49.022Z,-0.60
2019-01-18T03:32:48.931Z,-0.50
2019-01-18T03:33:48.839Z,-0.59
2019-01-18T03:34:48.706Z,-0.58
2019-01-18T03:35:48.603Z,-0.44
2019-01-18T03:36:48.616Z,-0.58
2019-01-18T03:37:48.400Z,-0.49
2019-01-18T03:38:48.312Z,-0.53
2019-01-18T03:39:48.188Z,-0.53
2019-01-18T03:40:48.085Z,-0.50
2019-01-18T03:41:47.979Z,-0.49
2019-01-18T03:42:47.875Z,-0.49
2019-01-18T03:43:47.898Z,-0.55
2019-01-18T03:44:47.668Z,-0.55
2019-01-18T03:45:47.563Z,-0.55
2019-01-18T03:46:47.458Z,-0.55
2019-01-18T03:47:47.356Z,-0.60
2019-01-18T03:48:47.273Z,-0.52
2019-01-18T03:49:47.147Z,-0.59
2019-01-18T03:50:47.144Z,-0.67
2019-01-18T03:51:46.937Z,-0.63
2019-01-18T03:52:46.832Z,-0.63
2019-01-18T03:53:46.751Z,-0.62
2019-01-18T03:54:46.637Z,-0.60
2019-01-18T03:55:46.521Z,-0.70
2019-01-18T03:56:46.423Z,-0.73
2019-01-18T03:57:46.411Z,-0.73
2019-01-18T03:58:46.230Z,-0.68
2019-01-18T03:59:46.109Z,-0.63
2019-01-18T04:00:46.003Z,-0.62
2019-01-18T04:01:45.897Z,-0.60
2019-01-18T04:02:45.792Z,-0.68
2019-01-18T04:03:45.707Z,-0.63
2019-01-18T04:04:45.686Z,-0.62
2019-01-18T04:05:45.482Z,-0.58
2019-01-18T04:06:45.375Z,-0.49
2019-01-18T04:07:45.271Z,-0.53
2019-01-18T04:08:45.196Z,-0.59
2019-01-18T04:09:45.067Z,-0.53
2019-01-18T04:10:44.958Z,-0.55
2019-01-18T04:11:44.858Z,-0.47
2019-01-18T04:12:44.751Z,-0.49
2019-01-18T04:13:44.666Z,-0.45
2019-01-18T04:14:44.545Z,-0.53
2019-01-18T04:15:44.438Z,-0.60
2019-01-18T04:16:44.335Z,-0.60
2019-01-18T04:17:44.232Z,-0.53
2019-01-18T04:18:44.149Z,-0.63
2019-01-18T04:19:44.024Z,-0.67
2019-01-18T04:20:43.917Z,-0.70
2019-01-18T04:21:43.814Z,-0.63
2019-01-18T04:22:43.710Z,-0.71
2019-01-18T04:23:43.632Z,-0.70
2019-01-18T04:24:43.506Z,-0.65
2019-01-18T04:25:43.399Z,-0.83
2019-01-18T04:26:43.397Z,-0.70
2019-01-18T04:27:43.189Z,-0.73
2019-01-18T04:28:43.104Z,-0.73
2019-01-18T04:29:42.983Z,-0.70
2019-01-18T04:30:42.881Z,-0.65
2019-01-18T04:31:42.782Z,-0.67
2019-01-18T04:32:42.670Z,-0.68
2019-01-18T04:33:42.597Z,-0.80
2019-01-18T04:34:42.482Z,-0.97
2019-01-18T04:35:42.359Z,-0.90
2019-01-18T04:36:42.257Z,-1.03
2019-01-18T04:37:42.149Z,-1.05
2019-01-18T04:38:42.067Z,-1.10
2019-01-18T04:39:41.939Z,-1.02
2019-01-18T04:40:41.853Z,-0.99
2019-01-18T04:41:41.731Z,-1.08
2019-01-18T04:42:41.627Z,-1.02
2019-01-18T04:43:41.523Z,-1.03
2019-01-18T04:44:41.442Z,-0.97
2019-01-18T04:45:41.313Z,-1.02
2019-01-18T04:46:41.207Z,-0.95
2019-01-18T04:47:41.128Z,-1.00
2019-01-18T04:48:41.003Z,-1.02
2019-01-18T04:49:40.925Z,-0.93
2019-01-18T04:50:40.798Z,-1.00
2019-01-18T04:51:40.686Z,-0.90
2019-01-18T04:52:40.584Z,-0.92
2019-01-18T04:53:40.482Z,-0.96
2019-01-18T04:54:40.396Z,-0.97
2019-01-18T04:55:40.271Z,-0.93
2019-01-18T04:56:40.172Z,-0.99
2019-01-18T04:57:40.062Z,-0.92
2019-01-18T04:58:39.968Z,-0.96
2019-01-18T04:59:39.875Z,-0.99
2019-01-18T05:00:40.869Z,-1.00
2019-01-18T05:01:39.648Z,-0.97
2019-01-18T05:02:39.539Z,-0.93
2019-01-18T05:03:39.434Z,-0.92
2019-01-18T05:04:39.358Z,-0.97
2019-01-18T05:05:39.230Z,-0.99
2019-01-18T05:06:39.122Z,-1.05
2019-01-18T05:07:39.018Z,-1.00
2019-01-18T05:08:38.919Z,-0.99
2019-01-18T05:09:38.932Z,-1.05
2019-01-18T05:10:38.704Z,-0.93
2019-01-18T05:11:38.602Z,-0.97
2019-01-18T05:12:38.496Z,-1.00
2019-01-18T05:13:38.393Z,-0.96
2019-01-18T05:14:38.325Z,-0.99
2019-01-18T05:15:38.182Z,-1.00
2019-01-18T05:16:38.176Z,-0.99
2019-01-18T05:17:37.978Z,-0.96
2019-01-18T05:18:37.870Z,-0.99
2019-01-18T05:19:37.789Z,-1.05
2019-01-18T05:20:37.662Z,-0.99
2019-01-18T05:21:37.560Z,-0.95
2019-01-18T05:22:37.452Z,-0.96
2019-01-18T05:23:37.449Z,-0.92
2019-01-18T05:24:37.268Z,-0.93
2019-01-18T05:25:37.144Z,-1.00
2019-01-18T05:26:37.053Z,-0.92
2019-01-18T05:27:36.936Z,-0.92
2019-01-18T05:28:36.834Z,-0.97
2019-01-18T05:29:36.745Z,-0.93
2019-01-18T05:30:36.718Z,-0.97
2019-01-18T05:31:36.516Z,-0.97
2019-01-18T05:32:36.411Z,-0.92
2019-01-18T05:33:36.308Z,-1.02
2019-01-18T05:34:36.224Z,-0.99
2019-01-18T05:35:36.111Z,-0.99
2019-01-18T05:36:35.995Z,-1.03
2019-01-18T05:37:37.445Z,-1.00
2019-01-18T05:38:35.786Z,-1.05
2019-01-18T05:39:35.700Z,-0.99
2019-01-18T05:40:35.580Z,-1.05
2019-01-18T05:41:35.474Z,-1.07
2019-01-18T05:42:35.372Z,-1.05
2019-01-18T05:43:35.263Z,-1.05
2019-01-18T05:44:35.275Z,-1.02
2019-01-18T05:45:35.054Z,-1.11
2019-01-18T05:46:34.951Z,-1.05
2019-01-18T05:47:34.848Z,-1.07
2019-01-18T05:48:34.742Z,-1.05
2019-01-18T05:49:34.661Z,-1.10
2019-01-18T05:50:34.534Z,-1.05
2019-01-18T05:51:34.542Z,-1.02
2019-01-18T05:52:34.327Z,-1.08
2019-01-18T05:53:34.222Z,-1.10
2019-01-18T05:54:34.144Z,-1.05
2019-01-18T05:55:34.013Z,-1.11
2019-01-18T05:56:33.908Z,-1.02
2019-01-18T05:57:33.809Z,-1.08
2019-01-18T05:58:33.802Z,-1.14
2019-01-18T05:59:33.616Z,-1.10
2019-01-18T06:00:33.491Z,-0.99
2019-01-18T06:01:33.387Z,-1.07
2019-01-18T06:02:33.299Z,-1.11
2019-01-18T06:03:33.175Z,-1.08
2019-01-18T06:04:33.093Z,-1.07
2019-01-18T06:05:33.071Z,-1.10
2019-01-18T06:06:32.864Z,-1.07
2019-01-18T06:07:32.759Z,-1.08
2019-01-18T06:08:32.656Z,-1.07
2019-01-18T06:09:32.572Z,-1.10
2019-01-18T06:10:32.447Z,-1.17
2019-01-18T06:11:32.344Z,-1.10
2019-01-18T06:12:32.336Z,-1.13
2019-01-18T06:13:32.132Z,-1.11
2019-01-18T06:14:32.050Z,-1.25
2019-01-18T06:15:31.923Z,-1.28
2019-01-18T06:16:31.822Z,-1.23
2019-01-18T06:17:31.718Z,-1.15
2019-01-18T06:18:31.613Z,-1.15
2019-01-18T06:19:31.624Z,-1.07
2019-01-18T06:20:31.430Z,-1.18
2019-01-18T06:21:31.297Z,-1.17
2019-01-18T06:22:31.194Z,-1.23
2019-01-18T06:23:31.091Z,-1.15
2019-01-18T06:24:31.005Z,-1.10
2019-01-18T06:25:30.893Z,-1.07
2019-01-18T06:26:30.775Z,-1.15
2019-01-18T06:27:30.671Z,-1.14
2019-01-18T06:28:30.572Z,-1.18
2019-01-18T06:29:30.470Z,-1.10
2019-01-18T06:30:30.394Z,-1.23
2019-01-18T06:31:30.254Z,-1.10
2019-01-18T06:32:30.149Z,-1.13
2019-01-18T06:33:30.143Z,-1.17
2019-01-18T06:34:29.944Z,-1.17
2019-01-18T06:35:29.855Z,-1.15
2019-01-18T06:36:29.733Z,-1.13
2019-01-18T06:37:29.628Z,-1.13
2019-01-18T06:38:29.522Z,-1.17
2019-01-18T06:39:29.434Z,-1.20
2019-01-18T06:40:29.335Z,-1.18
2019-01-18T06:41:29.208Z,-1.13
2019-01-18T06:42:29.103Z,-1.23
2019-01-18T06:43:28.999Z,-1.14
2019-01-18T06:44:28.895Z,-1.13
2019-01-18T06:45:28.808Z,-1.13
2019-01-18T06:46:28.688Z,-1.14
2019-01-18T06:47:28.581Z,-1.11
2019-01-18T06:48:28.489Z,-1.11
2019-01-18T06:49:28.370Z,-1.07
2019-01-18T06:50:28.289Z,-1.10
2019-01-18T06:51:28.163Z,-1.15
2019-01-18T06:52:28.061Z,-1.15
2019-01-18T06:53:27.949Z,-1.10
2019-01-18T06:54:27.850Z,-1.07
2019-01-18T06:55:27.764Z,-1.05
2019-01-18T06:56:27.643Z,-1.08
2019-01-18T06:57:27.536Z,-1.05
2019-01-18T06:58:27.431Z,-1.02
2019-01-18T06:59:27.329Z,-1.05
2019-01-18T07:00:27.244Z,-1.05
2019-01-18T07:01:27.118Z,-1.11
2019-01-18T07:02:27.014Z,-1.05
2019-01-18T07:03:26.909Z,-1.03
2019-01-18T07:04:26.805Z,-1.14
2019-01-18T07:05:26.724Z,-1.05
2019-01-18T07:06:26.611Z,-1.02
2019-01-18T07:07:26.492Z,-0.97
2019-01-18T07:08:26.385Z,-1.03
2019-01-18T07:09:26.285Z,-1.05
2019-01-18T07:10:26.197Z,-1.07
2019-01-18T07:11:26.074Z,-1.07
2019-01-18T07:12:25.970Z,-1.00
2019-01-18T07:13:25.866Z,-1.08
2019-01-18T07:14:25.759Z,-1.05
2019-01-18T07:15:25.701Z,-1.05
2019-01-18T07:16:25.558Z,-1.05
2019-01-18T07:17:25.449Z,-0.99
2019-01-18T07:18:25.344Z,-0.99
2019-01-18T07:19:25.242Z,-1.08
2019-01-18T07:20:25.153Z,-1.08
2019-01-18T07:21:25.031Z,-1.11
2019-01-18T07:22:24.926Z,-1.00
2019-01-18T07:23:24.923Z,-1.02
2019-01-18T07:24:24.716Z,-0.97
2019-01-18T07:25:24.632Z,-0.99
2019-01-18T07:26:24.508Z,-0.97
2019-01-18T07:27:24.402Z,-1.02
2019-01-18T07:28:24.299Z,-0.97
2019-01-18T07:29:24.197Z,-0.99
2019-01-18T07:30:24.112Z,-0.99
2019-01-18T07:31:23.986Z,-0.99
2019-01-18T07:32:23.881Z,-1.00
2019-01-18T07:33:23.777Z,-0.96
2019-01-18T07:34:23.674Z,-1.00
2019-01-18T07:35:23.589Z,-0.92
2019-01-18T07:36:23.466Z,-0.99
2019-01-18T07:37:23.462Z,-0.95
2019-01-18T07:38:23.256Z,-0.97
2019-01-18T07:39:23.150Z,-0.99
2019-01-18T07:40:23.066Z,-0.96
2019-01-18T07:41:22.943Z,-0.99
2019-01-18T07:42:22.840Z,-0.96
2019-01-18T07:43:22.736Z,-0.96
2019-01-18T07:44:22.745Z,-0.99
2019-01-18T07:45:22.547Z,-0.97
2019-01-18T07:46:22.420Z,-0.93
2019-01-18T07:47:22.315Z,-0.95
2019-01-18T07:48:22.209Z,-0.99
2019-01-18T07:49:22.107Z,-0.99
2019-01-18T07:50:22.027Z,-0.93
2019-01-18T07:51:22.001Z,-0.99
2019-01-18T07:52:21.794Z,-0.99
2019-01-18T07:53:21.708Z,-0.92
2019-01-18T07:54:21.589Z,-0.85
2019-01-18T07:55:21.503Z,-0.86
2019-01-18T07:56:21.376Z,-0.89
2019-01-18T07:57:21.272Z,-0.92
2019-01-18T07:58:21.267Z,-0.86
2019-01-18T07:59:21.065Z,-0.77
2019-01-18T08:00:20.989Z,-0.73
2019-01-18T08:01:22.206Z,-0.78
2019-01-18T08:02:20.750Z,-0.80
2019-01-18T08:03:20.647Z,-0.74
2019-01-18T08:04:20.542Z,-0.83
2019-01-18T08:05:20.543Z,-0.71
2019-01-18T08:06:20.383Z,-0.80
2019-01-18T08:07:20.230Z,-0.78
2019-01-18T08:08:20.135Z,-0.77
2019-01-18T08:09:20.025Z,-0.78
2019-01-18T08:10:19.922Z,-0.83
2019-01-18T08:11:19.833Z,-0.83
2019-01-18T08:12:19.827Z,-0.80
2019-01-18T08:13:19.608Z,-0.83
2019-01-18T08:14:19.507Z,-0.81
2019-01-18T08:15:19.399Z,-0.73
2019-01-18T08:16:19.313Z,-0.86
2019-01-18T08:17:19.191Z,-0.86
2019-01-18T08:18:19.086Z,-0.71
2019-01-18T08:19:19.084Z,-0.83
2019-01-18T08:20:18.890Z,-0.74
2019-01-18T08:21:18.794Z,-0.76
2019-01-18T08:22:18.670Z,-0.85
2019-01-18T08:23:18.565Z,-0.86
2019-01-18T08:24:18.460Z,-0.86
2019-01-18T08:25:18.359Z,-0.89
2019-01-18T08:26:18.376Z,-0.81
2019-01-18T08:27:18.150Z,-0.73
2019-01-18T08:28:18.046Z,-0.76
2019-01-18T08:29:17.941Z,-0.76
2019-01-18T08:30:17.839Z,-0.74
2019-01-18T08:31:17.754Z,-0.83
2019-01-18T08:32:17.630Z,-0.71
2019-01-18T08:33:17.632Z,-0.68
2019-01-18T08:34:17.422Z,-0.71
2019-01-18T08:35:17.319Z,-0.67
2019-01-18T08:36:17.233Z,-0.83
2019-01-18T08:37:17.113Z,-0.70
2019-01-18T08:38:17.008Z,-0.65
2019-01-18T08:39:16.903Z,-0.71
2019-01-18T08:40:16.914Z,-0.60
2019-01-18T08:41:16.721Z,-0.63
2019-01-18T08:42:16.590Z,-0.65
2019-01-18T08:43:16.486Z,-0.65
2019-01-18T08:44:16.385Z,-0.65
2019-01-18T08:45:16.280Z,-0.62
2019-01-18T08:46:16.194Z,-0.65
2019-01-18T08:47:16.192Z,-0.58
2019-01-18T08:48:15.967Z,-0.68
2019-01-18T08:49:15.863Z,-0.68
2019-01-18T08:50:15.763Z,-0.71
2019-01-18T08:51:15.676Z,-0.71
2019-01-18T08:52:15.553Z,-0.81
2019-01-18T08:53:15.459Z,-0.74
2019-01-18T08:54:15.347Z,-0.83
2019-01-18T08:55:15.239Z,-0.83
2019-01-18T08:56:16.672Z,-0.89
2019-01-18T08:57:15.037Z,-0.97
2019-01-18T08:58:14.930Z,-0.90
2019-01-18T08:59:14.826Z,-0.96
2019-01-18T09:00:14.722Z,-0.96
2019-01-18T09:01:14.638Z,-0.85
2019-01-18T09:02:14.515Z,-0.85
2019-01-18T09:03:14.414Z,-0.77
2019-01-18T09:04:14.312Z,-0.73
2019-01-18T09:05:14.207Z,-0.74
2019-01-18T09:06:14.124Z,-0.77
2019-01-18T09:07:13.997Z,-0.65
2019-01-18T09:08:13.894Z,-0.68
2019-01-18T09:09:13.800Z,-0.65
2019-01-18T09:10:13.688Z,-0.56
2019-01-18T09:11:13.603Z,-0.41
2019-01-18T09:12:13.477Z,0.13
2019-01-18T09:13:13.373Z,1.35
2019-01-18T09:14:19.308Z,1.17
2019-01-18T09:15:13.166Z,0.78
2019-01-18T09:16:13.082Z,0.52
2019-01-18T09:17:12.959Z,0.59
2019-01-18T09:18:12.857Z,0.51
2019-01-18T09:19:12.755Z,0.17
2019-01-18T09:20:12.651Z,0.07
2019-01-18T09:21:12.569Z,-0.17
2019-01-18T09:22:12.442Z,-0.05
2019-01-18T09:23:12.341Z,-0.19
2019-01-18T09:24:12.239Z,-0.35
2019-01-18T09:25:12.143Z,-0.44
2019-01-18T09:26:12.053Z,-0.42
2019-01-18T09:27:11.933Z,-0.47
2019-01-18T09:28:11.828Z,-0.62
2019-01-18T09:29:11.724Z,-0.62
2019-01-18T09:30:11.622Z,-0.62
2019-01-18T09:31:11.538Z,-0.55
2019-01-18T09:32:11.418Z,-0.39
2019-01-18T09:33:11.325Z,-0.37
2019-01-18T09:34:11.207Z,-0.52
2019-01-18T09:35:11.108Z,-0.34
2019-01-18T09:36:11.024Z,-0.24
2019-01-18T09:37:10.904Z,-0.17
2019-01-18T09:38:10.806Z,-0.09
2019-01-18T09:39:10.693Z,-0.17
2019-01-18T09:40:10.590Z,0.44
2019-01-18T09:41:10.515Z,0.38
2019-01-18T09:42:10.387Z,1.39
2019-01-18T09:43:10.284Z,1.25
2019-01-18T09:44:10.182Z,1.89
2019-01-18T09:45:10.392Z,2.18
2019-01-18T09:46:09.997Z,1.74
2019-01-18T09:47:09.872Z,0.95
2019-01-18T09:48:09.770Z,0.53
2019-01-18T09:49:09.668Z,1.17
2019-01-18T09:50:09.563Z,0.74
2019-01-18T09:51:09.464Z,0.75
2019-01-18T09:52:09.474Z,2.00
2019-01-18T09:53:09.260Z,1.70
2019-01-18T09:54:09.157Z,1.29
2019-01-18T09:55:09.056Z,0.80
2019-01-18T09:56:08.956Z,0.62
2019-01-18T09:57:08.872Z,0.51
2019-01-18T09:58:08.750Z,0.31
2019-01-18T09:59:08.754Z,-0.01
2019-01-18T10:00:08.548Z,-0.24
2019-01-18T10:01:08.448Z,-0.56
2019-01-18T10:02:08.363Z,-0.52
2019-01-18T10:03:08.246Z,0.43
2019-01-18T10:04:08.139Z,0.31
2019-01-18T10:05:08.040Z,0.15
2019-01-18T10:06:08.050Z,0.04
2019-01-18T10:07:07.855Z,-0.16
2019-01-18T10:08:07.732Z,-0.41
2019-01-18T10:09:07.631Z,-0.45
2019-01-18T10:10:07.544Z,-0.59
2019-01-18T10:11:07.426Z,-0.73
2019-01-18T10:12:07.345Z,-0.76
2019-01-18T10:13:07.327Z,-0.65
2019-01-18T10:14:07.125Z,0.59
2019-01-18T10:15:07.018Z,0.19
2019-01-18T10:16:06.914Z,-0.14
2019-01-18T10:17:06.833Z,-0.32
2019-01-18T10:18:06.707Z,-0.42
2019-01-18T10:19:06.608Z,-0.60
2019-01-18T10:20:06.612Z,-0.68
2019-01-18T10:21:06.407Z,-0.67
2019-01-18T10:22:06.321Z,-0.44
2019-01-18T10:23:06.202Z,0.80
2019-01-18T10:24:06.094Z,0.52
2019-01-18T10:25:05.993Z,0.07
2019-01-18T10:26:05.890Z,-0.20
2019-01-18T10:27:05.932Z,-0.26
2019-01-18T10:28:05.684Z,-0.55
2019-01-18T10:29:05.582Z,-0.45
2019-01-18T10:30:05.480Z,-0.30
2019-01-18T10:31:05.378Z,-0.37
2019-01-18T10:32:05.297Z,-0.39
2019-01-18T10:33:05.191Z,0.95
2019-01-18T10:34:05.171Z,0.82
2019-01-18T10:35:04.968Z,0.48
2019-01-18T10:36:04.865Z,0.44
2019-01-18T10:37:05.537Z,-0.09
2019-01-18T10:38:04.668Z,-0.21
2019-01-18T10:39:04.558Z,-0.38
2019-01-18T10:40:04.455Z,-0.49
2019-01-18T10:41:04.454Z,-0.71
2019-01-18T10:42:04.274Z,-0.70
2019-01-18T10:43:04.149Z,-0.89
2019-01-18T10:44:06.119Z,-0.80
2019-01-18T10:45:03.945Z,-0.62
2019-01-18T10:46:03.837Z,-0.59
2019-01-18T10:47:03.760Z,-0.17
2019-01-18T10:48:03.898Z,0.62
2019-01-18T10:49:03.545Z,1.21
2019-01-18T10:50:03.430Z,2.09
2019-01-18T10:51:03.330Z,2.01
2019-01-18T10:52:03.253Z,2.15
2019-01-18T10:53:03.125Z,2.66
2019-01-18T10:54:03.021Z,3.13
2019-01-18T10:55:03.443Z,3.82
2019-01-18T10:56:02.819Z,4.10
2019-01-18T10:57:02.739Z,3.75
2019-01-18T10:58:02.617Z,3.72
2019-01-18T10:59:02.519Z,3.78
2019-01-18T11:00:02.418Z,3.68
2019-01-18T11:01:02.316Z,4.07
2019-01-18T11:02:07.269Z,4.62
2019-01-18T11:03:02.122Z,4.42
2019-01-18T11:04:02.017Z,4.71
2019-01-18T11:05:01.918Z,4.68
2019-01-18T11:06:01.826Z,5.11
2019-01-18T11:07:01.738Z,4.54
2019-01-18T11:08:01.621Z,5.11
2019-01-18T11:09:01.523Z,4.97
2019-01-18T11:10:01.424Z,3.84
2019-01-18T11:11:01.325Z,3.10
2019-01-18T11:12:01.247Z,3.84
2019-01-18T11:13:01.130Z,4.38
2019-01-18T11:14:01.131Z,4.99
2019-01-18T11:15:00.932Z,5.17
2019-01-18T11:16:00.838Z,5.63
2019-01-18T11:17:00.758Z,6.32
2019-01-18T11:18:00.645Z,6.68
2019-01-18T11:19:00.543Z,6.99
2019-01-18T11:20:00.447Z,6.60
2019-01-18T11:21:00.351Z,7.30
2019-01-18T11:22:00.273Z,6.54
2019-01-18T11:23:00.154Z,6.11
2019-01-18T11:24:00.058Z,5.60
2019-01-18T11:24:59.965Z,4.46
2019-01-18T11:25:59.867Z,4.28
2019-01-18T11:26:59.832Z,3.42
2019-01-18T11:27:59.678Z,2.37
2019-01-18T11:28:59.580Z,1.39
2019-01-18T11:29:59.482Z,1.26
2019-01-18T11:30:59.386Z,0.56
2019-01-18T11:31:59.291Z,0.81
2019-01-18T11:32:59.214Z,1.61
2019-01-18T11:33:59.094Z,1.61
2019-01-18T11:34:59.006Z,1.43
2019-01-18T11:35:58.904Z,0.93
2019-01-18T11:36:59.547Z,0.77
2019-01-18T11:37:58.705Z,0.62
2019-01-18T11:38:58.606Z,1.70
2019-01-18T11:39:58.510Z,2.58
2019-01-18T11:40:58.412Z,3.26
2019-01-18T11:41:58.315Z,3.86
2019-01-18T11:42:58.235Z,4.49
2019-01-18T11:43:58.118Z,4.18
2019-01-18T11:44:58.019Z,5.20
2019-01-18T11:45:57.919Z,5.59
2019-01-18T11:46:57.823Z,6.02
2019-01-18T11:47:57.747Z,6.20
2019-01-18T11:48:57.732Z,6.48
2019-01-18T11:49:57.530Z,6.39
2019-01-18T11:50:57.435Z,6.21
2019-01-18T11:51:57.340Z,5.65
2019-01-18T11:52:57.265Z,5.12
2019-01-18T11:53:57.144Z,5.22
2019-01-18T11:54:57.052Z,6.14
2019-01-18T11:55:57.065Z,6.36
2019-01-18T11:56:56.863Z,7.09
2019-01-18T11:57:56.784Z,6.53
2019-01-18T11:58:56.672Z,6.79
2019-01-18T11:59:56.573Z,6.08
2019-01-18T12:00:56.480Z,6.55
2019-01-18T12:01:56.386Z,6.76
2019-01-18T12:02:56.409Z,6.50
2019-01-18T12:03:56.198Z,6.48
2019-01-18T12:04:56.101Z,6.79
2019-01-18T12:05:56.007Z,7.11
2019-01-18T12:06:55.910Z,7.00
2019-01-18T12:07:55.839Z,6.53
2019-01-18T12:08:55.724Z,6.27
2019-01-18T12:09:55.727Z,6.90
2019-01-18T12:10:55.536Z,7.50
2019-01-18T12:11:55.444Z,7.73
2019-01-18T12:12:55.367Z,7.95
2019-01-18T12:13:55.254Z,7.82
2019-01-18T12:14:55.182Z,7.45
2019-01-18T12:15:55.069Z,7.23
2019-01-18T12:16:55.079Z,6.65
2019-01-18T12:17:54.901Z,6.58
2019-01-18T12:18:54.789Z,6.45
2019-01-18T12:19:54.696Z,6.01
2019-01-18T12:20:54.604Z,6.11
2019-01-18T12:21:54.506Z,5.58
2019-01-18T12:22:54.436Z,5.42
2019-01-18T12:23:54.325Z,5.63
2019-01-18T12:24:54.229Z,5.99
2019-01-18T12:25:54.133Z,5.99
2019-01-18T12:26:54.040Z,5.77
2019-01-18T12:27:53.966Z,5.70
2019-01-18T12:28:53.856Z,5.92
2019-01-18T12:29:53.760Z,5.47
2019-01-18T12:30:53.667Z,5.14
2019-01-18T12:31:53.573Z,4.72
2019-01-18T12:32:53.500Z,4.56
2019-01-18T12:33:53.385Z,4.42
2019-01-18T12:34:53.292Z,4.24
2019-01-18T12:35:53.199Z,4.16
2019-01-18T12:36:58.806Z,4.10
2019-01-18T12:37:53.029Z,4.18
2019-01-18T12:38:52.914Z,3.98
2019-01-18T12:39:52.821Z,3.89
2019-01-18T12:40:52.726Z,3.28
2019-01-18T12:41:52.628Z,3.57
2019-01-18T12:42:52.556Z,3.60
2019-01-18T12:43:52.440Z,3.53
2019-01-18T12:44:52.347Z,3.89
2019-01-18T12:45:52.248Z,3.95
2019-01-18T12:46:52.157Z,3.98
2019-01-18T12:47:52.084Z,3.90
2019-01-18T12:48:51.965Z,3.86
2019-01-18T12:49:51.871Z,3.96
2019-01-18T12:50:51.774Z,3.81
2019-01-18T12:51:51.676Z,3.77
2019-01-18T12:52:51.605Z,3.82
2019-01-18T12:53:51.484Z,3.93
2019-01-18T12:54:51.388Z,3.75
2019-01-18T12:55:51.293Z,3.93
2019-01-18T12:56:51.200Z,3.62